sensor_id;sensor_type;location;lat;lon;timestamp;pressure;altitude;pressure_sealevel;temperature;humidity
49825;BME280;35714;55.708;37.478;2023-04-27T00:01:22;98672.81;;;11.08;58.04
49825;BME280;35714;55.708;37.478;2023-04-27T00:03:48;98666.53;;;11.08;58.25
49825;BME280;35714;55.708;37.478;2023-04-27T00:06:15;98678.22;;;11.08;57.96
49825;BME280;35714;55.708;37.478;2023-04-27T00:08:41;98671.97;;;11.08;58.21
49825;BME280;35714;55.708;37.478;2023-04-27T00:11:06;98676.59;;;11.07;58.07
49825;BME280;35714;55.708;37.478;2023-04-27T00:13:32;98676.59;;;11.07;58.21
49825;BME280;35714;55.708;37.478;2023-04-27T00:15:59;98684.16;;;11.05;58.11
49825;BME280;35714;55.708;37.478;2023-04-27T00:18:28;98681.38;;;11.00;57.87
49825;BME280;35714;55.708;37.478;2023-04-27T00:20:55;98674.84;;;10.96;58.23
49825;BME280;35714;55.708;37.478;2023-04-27T00:23:21;98686.75;;;10.95;58.38
49825;BME280;35714;55.708;37.478;2023-04-27T00:25:47;98686.22;;;10.93;58.51
49825;BME280;35714;55.708;37.478;2023-04-27T00:28:12;98685.63;;;10.91;58.74
49825;BME280;35714;55.708;37.478;2023-04-27T00:30:38;98682.91;;;10.91;58.61
49825;BME280;35714;55.708;37.478;2023-04-27T00:33:04;98677.47;;;10.91;58.73
49825;BME280;35714;55.708;37.478;2023-04-27T00:35:31;98680.44;;;10.89;58.79
49825;BME280;35714;55.708;37.478;2023-04-27T00:37:58;98659.47;;;10.79;58.83
49825;BME280;35714;55.708;37.478;2023-04-27T00:40:23;98673.59;;;10.81;58.94
49825;BME280;35714;55.708;37.478;2023-04-27T00:42:49;98676.59;;;10.80;58.67
49825;BME280;35714;55.708;37.478;2023-04-27T00:45:15;98682.81;;;10.80;58.83
49825;BME280;35714;55.708;37.478;2023-04-27T00:47:41;98675.19;;;10.77;59.12
49825;BME280;35714;55.708;37.478;2023-04-27T05:39:50;98819.69;;;16.20;43.39
49825;BME280;35714;55.708;37.478;2023-04-27T05:42:16;98824.06;;;16.21;43.62
49825;BME280;35714;55.708;37.478;2023-04-27T05:44:42;98813.06;;;16.27;43.31
49825;BME280;35714;55.708;37.478;2023-04-27T05:47:08;98826.09;;;16.40;43.14
49825;BME280;35714;55.708;37.478;2023-04-27T05:49:33;98817.00;;;16.45;43.06
49825;BME280;35714;55.708;37.478;2023-04-27T05:51:59;98819.63;;;16.55;42.55
49825;BME280;35714;55.708;37.478;2023-04-27T05:54:25;98814.34;;;16.64;42.40
49825;BME280;35714;55.708;37.478;2023-04-27T05:56:52;98807.13;;;16.73;41.93
49825;BME280;35714;55.708;37.478;2023-04-27T05:59:17;98809.81;;;16.78;42.12
49825;BME280;35714;55.708;37.478;2023-04-27T06:01:43;98823.94;;;16.90;41.41
49825;BME280;35714;55.708;37.478;2023-04-27T06:04:09;98820.84;;;16.97;41.37
49825;BME280;35714;55.708;37.478;2023-04-27T06:06:34;98828.66;;;17.09;41.27
49825;BME280;35714;55.708;37.478;2023-04-27T06:09:00;98825.56;;;17.16;41.58
49825;BME280;35714;55.708;37.478;2023-04-27T06:11:26;98819.06;;;17.30;40.38
49825;BME280;35714;55.708;37.478;2023-04-27T06:13:52;98820.72;;;17.50;40.34
49825;BME280;35714;55.708;37.478;2023-04-27T06:16:18;98826.72;;;17.72;39.40
49825;BME280;35714;55.708;37.478;2023-04-27T06:18:43;98830.59;;;17.90;38.99
49825;BME280;35714;55.708;37.478;2023-04-27T06:21:09;98838.19;;;18.12;37.82
49825;BME280;35714;55.708;37.478;2023-04-27T06:23:35;98831.25;;;18.33;36.94
49825;BME280;35714;55.708;37.478;2023-04-27T06:26:01;98828.66;;;18.56;37.04
49825;BME280;35714;55.708;37.478;2023-04-27T06:28:26;98833.59;;;18.87;36.10
49825;BME280;35714;55.708;37.478;2023-04-27T06:30:52;98835.22;;;19.16;35.69
49825;BME280;35714;55.708;37.478;2023-04-27T06:33:19;98831.53;;;19.48;34.51
49825;BME280;35714;55.708;37.478;2023-04-27T06:35:44;98829.25;;;19.78;33.55
49825;BME280;35714;55.708;37.478;2023-04-27T06:38:10;98832.19;;;20.04;33.46
49825;BME280;35714;55.708;37.478;2023-04-27T06:40:36;98833.06;;;20.36;32.61
49825;BME280;35714;55.708;37.478;2023-04-27T06:43:02;98831.16;;;20.68;32.56
49825;BME280;35714;55.708;37.478;2023-04-27T06:45:28;98832.44;;;21.02;31.59
49825;BME280;35714;55.708;37.478;2023-04-27T06:47:53;98829.78;;;21.37;31.37
49825;BME280;35714;55.708;37.478;2023-04-27T06:50:19;98828.56;;;21.87;29.92
49825;BME280;35714;55.708;37.478;2023-04-27T06:52:45;98838.75;;;22.21;29.27
49825;BME280;35714;55.708;37.478;2023-04-27T06:55:11;98836.13;;;22.51;28.33
49825;BME280;35714;55.708;37.478;2023-04-27T06:57:36;98835.44;;;22.72;28.14
49825;BME280;35714;55.708;37.478;2023-04-27T07:00:03;98849.63;;;23.09;27.00
49825;BME280;35714;55.708;37.478;2023-04-27T07:02:32;98841.72;;;23.28;26.14
49825;BME280;35714;55.708;37.478;2023-04-27T07:04:58;98837.16;;;23.53;25.28
49825;BME280;35714;55.708;37.478;2023-04-27T07:07:23;98849.72;;;23.72;24.94
49825;BME280;35714;55.708;37.478;2023-04-27T07:09:49;98843.31;;;23.59;24.60
49825;BME280;35714;55.708;37.478;2023-04-27T07:12:15;98848.84;;;23.59;24.74
49825;BME280;35714;55.708;37.478;2023-04-27T07:14:41;98844.91;;;23.90;25.09
49825;BME280;35714;55.708;37.478;2023-04-27T07:17:07;98833.22;;;24.39;23.43
49825;BME280;35714;55.708;37.478;2023-04-27T07:19:33;98840.56;;;24.68;22.75
49825;BME280;35714;55.708;37.478;2023-04-27T07:21:58;98840.03;;;24.75;23.18
49825;BME280;35714;55.708;37.478;2023-04-27T07:24:24;98835.53;;;24.95;23.50
49825;BME280;35714;55.708;37.478;2023-04-27T07:26:50;98838.78;;;25.34;23.16
49825;BME280;35714;55.708;37.478;2023-04-27T07:29:15;98836.16;;;25.78;23.41
49825;BME280;35714;55.708;37.478;2023-04-27T07:31:41;98844.63;;;26.22;22.14
49825;BME280;35714;55.708;37.478;2023-04-27T07:34:07;98844.06;;;26.45;22.70
49825;BME280;35714;55.708;37.478;2023-04-27T07:36:35;98840.75;;;26.55;22.29
49825;BME280;35714;55.708;37.478;2023-04-27T07:39:02;98845.84;;;26.53;22.76
49825;BME280;35714;55.708;37.478;2023-04-27T07:41:28;98859.44;;;26.71;21.87
49825;BME280;35714;55.708;37.478;2023-04-27T07:43:55;98854.44;;;26.92;21.73
49825;BME280;35714;55.708;37.478;2023-04-27T07:46:22;98859.56;;;27.06;21.52
49825;BME280;35714;55.708;37.478;2023-04-27T07:48:48;98850.50;;;27.09;21.30
49825;BME280;35714;55.708;37.478;2023-04-27T07:51:14;98861.28;;;27.11;21.20
49825;BME280;35714;55.708;37.478;2023-04-27T07:53:42;98866.63;;;27.19;21.10
49825;BME280;35714;55.708;37.478;2023-04-27T07:56:07;98865.56;;;27.24;21.03
49825;BME280;35714;55.708;37.478;2023-04-27T07:58:34;98869.25;;;27.12;21.24
49825;BME280;35714;55.708;37.478;2023-04-27T08:01:00;98868.78;;;26.94;21.52
49825;BME280;35714;55.708;37.478;2023-04-27T08:03:26;98864.34;;;27.06;21.56
49825;BME280;35714;55.708;37.478;2023-04-27T08:05:52;98857.50;;;27.19;20.87
49825;BME280;35714;55.708;37.478;2023-04-27T08:08:18;98870.41;;;27.27;21.10
49825;BME280;35714;55.708;37.478;2023-04-27T08:10:43;98849.56;;;27.53;21.04
49825;BME280;35714;55.708;37.478;2023-04-27T08:13:09;98863.44;;;28.04;21.02
49825;BME280;35714;55.708;37.478;2023-04-27T08:15:35;98866.44;;;28.35;20.88
49825;BME280;35714;55.708;37.478;2023-04-27T08:18:01;98861.69;;;28.35;20.91
49825;BME280;35714;55.708;37.478;2023-04-27T08:20:27;98866.50;;;28.38;21.19
49825;BME280;35714;55.708;37.478;2023-04-27T08:22:52;98860.94;;;28.58;20.88
49825;BME280;35714;55.708;37.478;2023-04-27T08:25:18;98864.31;;;28.90;20.95
49825;BME280;35714;55.708;37.478;2023-04-27T08:27:45;98861.88;;;28.89;21.29
49825;BME280;35714;55.708;37.478;2023-04-27T08:30:11;98869.72;;;29.26;21.02
49825;BME280;35714;55.708;37.478;2023-04-27T08:32:37;98862.09;;;29.49;21.20
49825;BME280;35714;55.708;37.478;2023-04-27T08:35:03;98860.16;;;29.27;20.88
49825;BME280;35714;55.708;37.478;2023-04-27T08:37:29;98860.34;;;28.68;21.13
49825;BME280;35714;55.708;37.478;2023-04-27T08:39:54;98858.31;;;28.26;22.21
49825;BME280;35714;55.708;37.478;2023-04-27T08:42:20;98871.53;;;28.10;22.48
49825;BME280;35714;55.708;37.478;2023-04-27T08:44:46;98874.25;;;27.90;21.97
49825;BME280;35714;55.708;37.478;2023-04-27T08:47:11;98872.41;;;27.78;22.18
49825;BME280;35714;55.708;37.478;2023-04-27T08:49:37;98864.09;;;27.62;22.35
49825;BME280;35714;55.708;37.478;2023-04-27T08:52:10;98873.63;;;27.61;22.60
49825;BME280;35714;55.708;37.478;2023-04-27T08:54:37;98860.38;;;28.10;22.21
49825;BME280;35714;55.708;37.478;2023-04-27T08:57:16;98866.97;;;28.60;21.36
49825;BME280;35714;55.708;37.478;2023-04-27T08:59:42;98866.53;;;29.04;20.52
49825;BME280;35714;55.708;37.478;2023-04-27T09:02:18;98863.09;;;29.14;20.50
49825;BME280;35714;55.708;37.478;2023-04-27T09:04:44;98863.19;;;28.95;20.60
49825;BME280;35714;55.708;37.478;2023-04-27T09:07:14;98868.97;;;29.29;20.84
49825;BME280;35714;55.708;37.478;2023-04-27T09:09:41;98869.03;;;29.86;20.19
49825;BME280;35714;55.708;37.478;2023-04-27T09:14:40;98871.56;;;30.29;19.76
49825;BME280;35714;55.708;37.478;2023-04-27T09:17:07;98861.25;;;30.70;19.68
49825;BME280;35714;55.708;37.478;2023-04-27T09:19:33;98885.78;;;31.25;19.10
49825;BME280;35714;55.708;37.478;2023-04-27T09:22:09;98869.47;;;31.42;19.00
49825;BME280;35714;55.708;37.478;2023-04-27T09:24:49;98869.34;;;31.76;18.55
49825;BME280;35714;55.708;37.478;2023-04-27T09:27:21;98865.56;;;32.20;17.43
49825;BME280;35714;55.708;37.478;2023-04-27T09:29:47;98872.47;;;32.55;17.30
49825;BME280;35714;55.708;37.478;2023-04-27T09:32:17;98861.75;;;32.97;16.17
49825;BME280;35714;55.708;37.478;2023-04-27T09:34:45;98860.94;;;32.82;15.85
49825;BME280;35714;55.708;37.478;2023-04-27T09:37:11;98862.38;;;32.22;16.88
49825;BME280;35714;55.708;37.478;2023-04-27T09:39:37;98867.41;;;31.87;16.41
49825;BME280;35714;55.708;37.478;2023-04-27T09:42:03;98855.41;;;31.31;16.96
49825;BME280;35714;55.708;37.478;2023-04-27T09:44:30;98858.78;;;31.03;18.12
49825;BME280;35714;55.708;37.478;2023-04-27T09:46:59;98859.72;;;31.21;18.15
49825;BME280;35714;55.708;37.478;2023-04-27T09:49:26;98863.44;;;31.36;17.88
49825;BME280;35714;55.708;37.478;2023-04-27T09:51:54;98868.16;;;31.25;18.08
49825;BME280;35714;55.708;37.478;2023-04-27T09:54:25;98873.19;;;31.53;18.13
49825;BME280;35714;55.708;37.478;2023-04-27T10:01:57;98869.59;;;32.30;17.09
49825;BME280;35714;55.708;37.478;2023-04-27T10:07:04;98875.97;;;32.19;17.18
49825;BME280;35714;55.708;37.478;2023-04-27T10:09:45;98875.31;;;32.62;17.05
49825;BME280;35714;55.708;37.478;2023-04-27T10:12:31;98866.44;;;32.38;17.08
49825;BME280;35714;55.708;37.478;2023-04-27T10:14:58;98880.03;;;32.33;16.79
49825;BME280;35714;55.708;37.478;2023-04-27T10:17:33;98876.91;;;32.60;16.78
49825;BME280;35714;55.708;37.478;2023-04-27T10:20:01;98872.16;;;32.96;16.46
49825;BME280;35714;55.708;37.478;2023-04-27T10:22:46;98873.81;;;33.33;15.16
49825;BME280;35714;55.708;37.478;2023-04-27T10:28:00;98876.22;;;33.09;16.31
49825;BME280;35714;55.708;37.478;2023-04-27T10:30:32;98859.97;;;32.20;16.62
49825;BME280;35714;55.708;37.478;2023-04-27T10:33:03;98868.84;;;31.11;17.59
49825;BME280;35714;55.708;37.478;2023-04-27T10:35:38;98865.84;;;29.61;19.17
49825;BME280;35714;55.708;37.478;2023-04-27T10:38:09;98867.25;;;28.35;20.41
49825;BME280;35714;55.708;37.478;2023-04-27T10:40:38;98874.47;;;27.46;21.11
49825;BME280;35714;55.708;37.478;2023-04-27T10:43:09;98869.72;;;26.98;21.80
49825;BME280;35714;55.708;37.478;2023-04-27T10:45:35;98873.47;;;27.38;21.53
49825;BME280;35714;55.708;37.478;2023-04-27T10:48:01;98884.50;;;27.50;22.25
49825;BME280;35714;55.708;37.478;2023-04-27T10:50:27;98873.19;;;26.95;23.22
49825;BME280;35714;55.708;37.478;2023-04-27T10:52:53;98874.41;;;26.38;23.96
49825;BME280;35714;55.708;37.478;2023-04-27T10:55:21;98870.41;;;25.82;24.16
49825;BME280;35714;55.708;37.478;2023-04-27T10:57:51;98884.38;;;25.45;25.40
49825;BME280;35714;55.708;37.478;2023-04-27T11:00:39;98885.69;;;24.90;26.16
49825;BME280;35714;55.708;37.478;2023-04-27T11:03:21;98888.25;;;24.28;26.04
49825;BME280;35714;55.708;37.478;2023-04-27T11:05:58;98874.19;;;23.91;26.80
49825;BME280;35714;55.708;37.478;2023-04-27T11:08:24;98894.34;;;23.70;27.16
49825;BME280;35714;55.708;37.478;2023-04-27T11:10:51;98894.25;;;23.58;27.80
49825;BME280;35714;55.708;37.478;2023-04-27T11:13:19;98895.31;;;23.15;29.14
49825;BME280;35714;55.708;37.478;2023-04-27T11:15:53;98902.56;;;22.72;29.92
49825;BME280;35714;55.708;37.478;2023-04-27T11:18:21;98894.97;;;22.43;31.31
49825;BME280;35714;55.708;37.478;2023-04-27T11:20:50;98902.63;;;22.37;31.88
49825;BME280;35714;55.708;37.478;2023-04-27T11:23:27;98899.50;;;22.21;31.64
49825;BME280;35714;55.708;37.478;2023-04-27T11:25:57;98895.09;;;22.29;31.91
49825;BME280;35714;55.708;37.478;2023-04-27T11:28:23;98888.13;;;22.49;31.68
49825;BME280;35714;55.708;37.478;2023-04-27T11:30:58;98898.06;;;23.06;31.81
49825;BME280;35714;55.708;37.478;2023-04-27T11:33:25;98889.66;;;23.41;31.09
49825;BME280;35714;55.708;37.478;2023-04-27T11:35:51;98893.78;;;23.86;30.00
49825;BME280;35714;55.708;37.478;2023-04-27T11:38:20;98891.22;;;24.23;28.95
49825;BME280;35714;55.708;37.478;2023-04-27T11:40:57;98887.16;;;24.54;28.35
49825;BME280;35714;55.708;37.478;2023-04-27T11:43:24;98887.59;;;25.47;26.91
49825;BME280;35714;55.708;37.478;2023-04-27T11:45:50;98886.47;;;26.42;25.94
49825;BME280;35714;55.708;37.478;2023-04-27T11:48:16;98881.03;;;27.38;25.05
49825;BME280;35714;55.708;37.478;2023-04-27T11:50:46;98880.19;;;28.24;22.59
49825;BME280;35714;55.708;37.478;2023-04-27T11:53:12;98902.41;;;28.20;21.84
49825;BME280;35714;55.708;37.478;2023-04-27T11:55:39;98887.13;;;27.59;22.60
49825;BME280;35714;55.708;37.478;2023-04-27T11:58:12;98875.72;;;27.48;22.27
49825;BME280;35714;55.708;37.478;2023-04-27T12:00:38;98878.75;;;27.95;22.53
49825;BME280;35714;55.708;37.478;2023-04-27T12:03:04;98875.25;;;27.98;21.95
49825;BME280;35714;55.708;37.478;2023-04-27T12:05:30;98879.22;;;27.29;22.57
49825;BME280;35714;55.708;37.478;2023-04-27T12:07:56;98873.72;;;26.69;23.40
49825;BME280;35714;55.708;37.478;2023-04-27T12:10:23;98867.31;;;26.24;24.20
49825;BME280;35714;55.708;37.478;2023-04-27T12:12:49;98863.34;;;26.82;23.88
49825;BME280;35714;55.708;37.478;2023-04-27T12:15:15;98863.28;;;27.62;22.97
49825;BME280;35714;55.708;37.478;2023-04-27T12:17:41;98866.81;;;28.14;22.55
49825;BME280;35714;55.708;37.478;2023-04-27T12:20:07;98867.88;;;28.25;21.92
49825;BME280;35714;55.708;37.478;2023-04-27T12:22:34;98858.00;;;28.51;21.32
49825;BME280;35714;55.708;37.478;2023-04-27T12:25:00;98862.09;;;28.57;20.89
49825;BME280;35714;55.708;37.478;2023-04-27T12:27:26;98867.88;;;28.25;21.00
49825;BME280;35714;55.708;37.478;2023-04-27T12:29:52;98863.72;;;27.99;21.24
49825;BME280;35714;55.708;37.478;2023-04-27T12:32:23;98866.84;;;27.78;21.73
49825;BME280;35714;55.708;37.478;2023-04-27T12:34:49;98867.09;;;27.89;21.71
49825;BME280;35714;55.708;37.478;2023-04-27T12:37:15;98853.00;;;28.40;21.80
49825;BME280;35714;55.708;37.478;2023-04-27T12:39:41;98853.81;;;29.30;20.20
49825;BME280;35714;55.708;37.478;2023-04-27T12:42:06;98846.13;;;29.77;18.88
49825;BME280;35714;55.708;37.478;2023-04-27T12:44:32;98842.13;;;30.04;18.86
49825;BME280;35714;55.708;37.478;2023-04-27T12:46:58;98843.19;;;30.27;18.72
49825;BME280;35714;55.708;37.478;2023-04-27T12:49:23;98848.91;;;30.75;17.98
49825;BME280;35714;55.708;37.478;2023-04-27T12:51:51;98847.22;;;30.67;17.81
49825;BME280;35714;55.708;37.478;2023-04-27T12:54:17;98848.06;;;30.71;17.97
49825;BME280;35714;55.708;37.478;2023-04-27T12:56:43;98840.63;;;30.14;18.33
49825;BME280;35714;55.708;37.478;2023-04-27T12:59:08;98845.88;;;28.86;19.34
49825;BME280;35714;55.708;37.478;2023-04-27T13:01:34;98836.41;;;28.48;19.62
49825;BME280;35714;55.708;37.478;2023-04-27T13:04:01;98848.28;;;28.64;19.63
49825;BME280;35714;55.708;37.478;2023-04-27T13:06:29;98847.75;;;29.01;19.72
49825;BME280;35714;55.708;37.478;2023-04-27T13:08:56;98823.53;;;29.85;18.74
49825;BME280;35714;55.708;37.478;2023-04-27T13:11:23;98842.88;;;30.73;17.93
49825;BME280;35714;55.708;37.478;2023-04-27T13:13:49;98840.31;;;31.50;17.34
49825;BME280;35714;55.708;37.478;2023-04-27T13:16:15;98834.94;;;31.86;16.73
49825;BME280;35714;55.708;37.478;2023-04-27T13:18:41;98847.38;;;31.89;16.96
49825;BME280;35714;55.708;37.478;2023-04-27T13:21:16;98842.09;;;31.17;17.28
49825;BME280;35714;55.708;37.478;2023-04-27T13:23:42;98838.50;;;30.04;18.08
49825;BME280;35714;55.708;37.478;2023-04-27T13:26:08;98846.88;;;28.97;19.19
49825;BME280;35714;55.708;37.478;2023-04-27T13:28:34;98842.94;;;27.77;20.66
49825;BME280;35714;55.708;37.478;2023-04-27T13:30:59;98849.69;;;27.41;21.05
49825;BME280;35714;55.708;37.478;2023-04-27T13:33:25;98850.78;;;27.91;21.15
49825;BME280;35714;55.708;37.478;2023-04-27T13:35:51;98846.72;;;28.04;20.32
49825;BME280;35714;55.708;37.478;2023-04-27T13:38:16;98852.00;;;27.23;21.10
49825;BME280;35714;55.708;37.478;2023-04-27T13:40:42;98852.50;;;26.20;22.42
49825;BME280;35714;55.708;37.478;2023-04-27T13:43:08;98852.66;;;25.46;23.43
49825;BME280;35714;55.708;37.478;2023-04-27T13:45:34;98852.75;;;25.00;23.82
49825;BME280;35714;55.708;37.478;2023-04-27T13:48:00;98848.84;;;24.56;24.40
49825;BME280;35714;55.708;37.478;2023-04-27T13:50:26;98849.13;;;24.63;24.44
49825;BME280;35714;55.708;37.478;2023-04-27T13:52:51;98842.19;;;24.69;24.67
49825;BME280;35714;55.708;37.478;2023-04-27T13:55:17;98845.81;;;24.48;24.71
49825;BME280;35714;55.708;37.478;2023-04-27T13:57:43;98857.34;;;24.38;25.38
49825;BME280;35714;55.708;37.478;2023-04-27T14:00:09;98848.25;;;25.20;24.47
49825;BME280;35714;55.708;37.478;2023-04-27T14:02:36;98840.97;;;26.06;23.67
49825;BME280;35714;55.708;37.478;2023-04-27T14:05:03;98847.28;;;27.07;22.53
49825;BME280;35714;55.708;37.478;2023-04-27T14:07:29;98849.47;;;27.85;21.30
49825;BME280;35714;55.708;37.478;2023-04-27T14:09:56;98867.66;;;28.57;20.38
49825;BME280;35714;55.708;37.478;2023-04-27T14:12:22;98839.56;;;28.89;19.75
49825;BME280;35714;55.708;37.478;2023-04-27T14:14:48;98854.22;;;29.05;19.44
49825;BME280;35714;55.708;37.478;2023-04-27T14:17:13;98851.94;;;29.14;19.57
49825;BME280;35714;55.708;37.478;2023-04-27T14:19:39;98853.88;;;29.10;19.43
49825;BME280;35714;55.708;37.478;2023-04-27T14:22:05;98847.88;;;29.08;19.35
49825;BME280;35714;55.708;37.478;2023-04-27T14:24:32;98851.94;;;28.25;20.26
49825;BME280;35714;55.708;37.478;2023-04-27T14:26:58;98852.84;;;27.94;20.58
49825;BME280;35714;55.708;37.478;2023-04-27T14:29:24;98837.63;;;28.27;20.58
49825;BME280;35714;55.708;37.478;2023-04-27T14:31:50;98841.56;;;28.26;19.98
49825;BME280;35714;55.708;37.478;2023-04-27T14:34:16;98830.91;;;27.38;21.23
49825;BME280;35714;55.708;37.478;2023-04-27T14:36:42;98848.88;;;26.92;22.02
49825;BME280;35714;55.708;37.478;2023-04-27T14:39:08;98842.56;;;26.63;22.29
49825;BME280;35714;55.708;37.478;2023-04-27T14:41:35;98834.63;;;26.05;22.73
49825;BME280;35714;55.708;37.478;2023-04-27T14:44:02;98849.69;;;25.39;23.86
49825;BME280;35714;55.708;37.478;2023-04-27T14:46:29;98843.38;;;24.80;24.19
49825;BME280;35714;55.708;37.478;2023-04-27T14:48:54;98844.09;;;25.02;24.19
49825;BME280;35714;55.708;37.478;2023-04-27T14:51:20;98845.94;;;25.60;23.36
49825;BME280;35714;55.708;37.478;2023-04-27T14:53:46;98842.38;;;26.28;22.58
49825;BME280;35714;55.708;37.478;2023-04-27T14:56:12;98847.63;;;27.06;21.62
49825;BME280;35714;55.708;37.478;2023-04-27T14:58:38;98844.41;;;27.35;20.90
49825;BME280;35714;55.708;37.478;2023-04-27T15:01:03;98837.84;;;27.63;20.46
49825;BME280;35714;55.708;37.478;2023-04-27T15:03:29;98838.44;;;27.53;20.74
49825;BME280;35714;55.708;37.478;2023-04-27T15:05:57;98846.88;;;27.76;20.63
49825;BME280;35714;55.708;37.478;2023-04-27T15:08:23;98851.22;;;27.93;20.34
49825;BME280;35714;55.708;37.478;2023-04-27T15:10:49;98851.00;;;27.82;20.28
49825;BME280;35714;55.708;37.478;2023-04-27T15:13:15;98841.47;;;27.64;20.59
49825;BME280;35714;55.708;37.478;2023-04-27T15:15:41;98844.16;;;27.60;20.89
49825;BME280;35714;55.708;37.478;2023-04-27T15:18:10;98843.53;;;27.67;20.71
49825;BME280;35714;55.708;37.478;2023-04-27T15:20:36;98842.09;;;27.57;21.01
49825;BME280;35714;55.708;37.478;2023-04-27T15:23:02;98839.81;;;27.43;21.20
49825;BME280;35714;55.708;37.478;2023-04-27T15:25:28;98843.28;;;27.24;21.32
49825;BME280;35714;55.708;37.478;2023-04-27T15:27:53;98841.78;;;27.27;21.32
49825;BME280;35714;55.708;37.478;2023-04-27T15:30:19;98843.59;;;27.03;21.38
49825;BME280;35714;55.708;37.478;2023-04-27T15:32:46;98844.75;;;26.86;21.90
49825;BME280;35714;55.708;37.478;2023-04-27T15:35:12;98841.53;;;26.84;21.80
49825;BME280;35714;55.708;37.478;2023-04-27T15:37:37;98843.47;;;26.68;21.61
49825;BME280;35714;55.708;37.478;2023-04-27T15:40:04;98843.84;;;26.66;22.04
49825;BME280;35714;55.708;37.478;2023-04-27T15:42:32;98852.06;;;26.62;22.31
49825;BME280;35714;55.708;37.478;2023-04-27T15:44:58;98845.13;;;26.40;22.15
49825;BME280;35714;55.708;37.478;2023-04-27T15:47:25;98847.16;;;26.27;22.39
49825;BME280;35714;55.708;37.478;2023-04-27T15:49:51;98858.06;;;26.20;22.71
49825;BME280;35714;55.708;37.478;2023-04-27T15:52:17;98858.06;;;26.20;22.93
49825;BME280;35714;55.708;37.478;2023-04-27T15:54:43;98860.47;;;26.22;22.52
49825;BME280;35714;55.708;37.478;2023-04-27T15:57:09;98857.81;;;26.25;22.46
49825;BME280;35714;55.708;37.478;2023-04-27T15:59:34;98858.25;;;25.99;22.98
49825;BME280;35714;55.708;37.478;2023-04-27T16:02:01;98857.03;;;25.72;23.26
49825;BME280;35714;55.708;37.478;2023-04-27T16:04:26;98863.53;;;25.51;23.61
49825;BME280;35714;55.708;37.478;2023-04-27T16:06:52;98853.47;;;25.22;23.94
49825;BME280;35714;55.708;37.478;2023-04-27T16:09:18;98865.34;;;24.85;24.70
49825;BME280;35714;55.708;37.478;2023-04-27T16:11:44;98849.06;;;24.50;24.94
49825;BME280;35714;55.708;37.478;2023-04-27T16:14:10;98868.66;;;23.91;25.94
49825;BME280;35714;55.708;37.478;2023-04-27T16:16:35;98866.69;;;23.40;26.54
49825;BME280;35714;55.708;37.478;2023-04-27T16:19:02;98874.34;;;22.96;26.92
49825;BME280;35714;55.708;37.478;2023-04-27T16:21:28;98864.06;;;22.58;27.65
49825;BME280;35714;55.708;37.478;2023-04-27T16:23:54;98867.53;;;22.20;28.20
49825;BME280;35714;55.708;37.478;2023-04-27T16:26:20;98868.00;;;21.87;28.75
49825;BME280;35714;55.708;37.478;2023-04-27T16:28:46;98865.69;;;21.54;29.11
49825;BME280;35714;55.708;37.478;2023-04-27T16:31:12;98863.78;;;21.23;29.98
49825;BME280;35714;55.708;37.478;2023-04-27T16:33:38;98858.63;;;20.90;30.13
49825;BME280;35714;55.708;37.478;2023-04-27T16:36:04;98866.97;;;20.68;30.84
49825;BME280;35714;55.708;37.478;2023-04-27T16:38:30;98874.31;;;20.50;31.28
49825;BME280;35714;55.708;37.478;2023-04-27T16:40:56;98875.63;;;20.30;31.66
49825;BME280;35714;55.708;37.478;2023-04-27T16:43:23;98884.38;;;20.09;31.79
49825;BME280;35714;55.708;37.478;2023-04-27T16:45:49;98880.34;;;19.93;32.42
49825;BME280;35714;55.708;37.478;2023-04-27T16:48:16;98876.31;;;19.76;32.89
49825;BME280;35714;55.708;37.478;2023-04-27T16:50:42;98880.19;;;19.61;32.94
49825;BME280;35714;55.708;37.478;2023-04-27T16:53:09;98884.88;;;19.47;33.09
49825;BME280;35714;55.708;37.478;2023-04-27T16:55:35;98889.88;;;19.31;33.58
49825;BME280;35714;55.708;37.478;2023-04-27T16:58:01;98904.66;;;19.21;34.20
49825;BME280;35714;55.708;37.478;2023-04-27T17:00:27;98888.34;;;19.11;33.77
49825;BME280;35714;55.708;37.478;2023-04-27T17:02:54;98894.06;;;19.01;33.94
49825;BME280;35714;55.708;37.478;2023-04-27T17:05:20;98890.59;;;18.95;34.78
49825;BME280;35714;55.708;37.478;2023-04-27T17:07:46;98888.53;;;18.87;34.59
49825;BME280;35714;55.708;37.478;2023-04-27T17:10:12;98894.63;;;18.84;34.58
49825;BME280;35714;55.708;37.478;2023-04-27T17:12:38;98890.03;;;18.79;34.96
49825;BME280;35714;55.708;37.478;2023-04-27T17:15:05;98900.28;;;18.73;35.15
49825;BME280;35714;55.708;37.478;2023-04-27T17:17:34;98893.53;;;18.66;35.38
49825;BME280;35714;55.708;37.478;2023-04-27T17:20:00;98904.44;;;18.57;35.55
49825;BME280;35714;55.708;37.478;2023-04-27T17:22:26;98908.88;;;18.53;35.40
49825;BME280;35714;55.708;37.478;2023-04-27T17:24:53;98906.22;;;18.48;36.12
49825;BME280;35714;55.708;37.478;2023-04-27T17:27:19;98896.94;;;18.44;35.74
49825;BME280;35714;55.708;37.478;2023-04-27T17:29:45;98899.78;;;18.38;35.97
49825;BME280;35714;55.708;37.478;2023-04-27T17:32:10;98904.47;;;18.38;36.23
49825;BME280;35714;55.708;37.478;2023-04-27T17:34:36;98900.16;;;18.32;36.38
49825;BME280;35714;55.708;37.478;2023-04-27T17:37:02;98902.16;;;18.26;36.28
49825;BME280;35714;55.708;37.478;2023-04-27T17:39:27;98904.41;;;18.24;36.33
49825;BME280;35714;55.708;37.478;2023-04-27T17:41:54;98903.97;;;18.17;36.74
49825;BME280;35714;55.708;37.478;2023-04-27T17:44:20;98908.94;;;18.15;36.76
49825;BME280;35714;55.708;37.478;2023-04-27T17:46:47;98905.97;;;18.11;36.81
49825;BME280;35714;55.708;37.478;2023-04-27T17:49:17;98905.16;;;18.11;36.93
49825;BME280;35714;55.708;37.478;2023-04-27T17:51:44;98911.22;;;18.08;36.93